Terminal Aerodrome Forecast
Issued by NWS

Home | Current Version | Previous Version | Text Only | Print | Product List | Glossary On
Versions: 1 2 3 4 5 6 7 8 9 10 11 12 13 14 15 16 17 18 19 20 21 22 23
000
FTUS43 KAPX 291731
TAFTVC
TAF
KTVC 291731Z 2918/3018 VRB03KT P6SM VCSH SCT014 OVC050
      TEMPO 2918/2920 BKN014
     FM292200 VRB03KT P6SM OVC040
     FM300300 00000KT 4SM BR OVC016
     FM301300 07004KT P6SM SCT030=

USA.gov is the U.S. government's official web portal to all federal, state and local government web resources and services.